sensor_id;sensor_type;location;lat;lon;timestamp;pressure;altitude;pressure_sealevel;temperature
70435;BMP280;57876;47.792;12.960;2022-10-26T00:00:19;97040.13;;;18.96
70435;BMP280;57876;47.792;12.960;2022-10-26T00:02:45;97041.38;;;18.95
70435;BMP280;57876;47.792;12.960;2022-10-26T00:05:09;97037.91;;;18.95
70435;BMP280;57876;47.792;12.960;2022-10-26T00:07:34;97037.22;;;18.94
70435;BMP280;57876;47.792;12.960;2022-10-26T00:09:58;97035.75;;;18.93
70435;BMP280;57876;47.792;12.960;2022-10-26T00:12:23;97044.72;;;18.94
70435;BMP280;57876;47.792;12.960;2022-10-26T00:14:47;97045.44;;;18.94
70435;BMP280;57876;47.792;12.960;2022-10-26T00:17:11;97031.56;;;18.92
70435;BMP280;57876;47.792;12.960;2022-10-26T00:19:36;97024.63;;;18.91
70435;BMP280;57876;47.792;12.960;2022-10-26T00:22:01;97014.41;;;18.92
70435;BMP280;57876;47.792;12.960;2022-10-26T00:24:25;97017.00;;;18.90
70435;BMP280;57876;47.792;12.960;2022-10-26T00:26:49;97016.41;;;18.91
70435;BMP280;57876;47.792;12.960;2022-10-26T00:29:14;97026.66;;;18.91
70435;BMP280;57876;47.792;12.960;2022-10-26T00:31:38;97034.13;;;18.90
70435;BMP280;57876;47.792;12.960;2022-10-26T00:34:03;97036.19;;;18.90
70435;BMP280;57876;47.792;12.960;2022-10-26T00:36:27;97032.00;;;18.89
70435;BMP280;57876;47.792;12.960;2022-10-26T00:38:53;97029.25;;;18.89
70435;BMP280;57876;47.792;12.960;2022-10-26T00:41:22;97017.56;;;18.88
70435;BMP280;57876;47.792;12.960;2022-10-26T00:43:47;97028.53;;;18.88
70435;BMP280;57876;47.792;12.960;2022-10-26T00:46:17;97027.78;;;18.88
70435;BMP280;57876;47.792;12.960;2022-10-26T00:48:51;97024.34;;;18.87
70435;BMP280;57876;47.792;12.960;2022-10-26T00:51:24;97023.59;;;18.87
70435;BMP280;57876;47.792;12.960;2022-10-26T00:53:50;97039.31;;;18.86
70435;BMP280;57876;47.792;12.960;2022-10-26T00:56:16;97042.06;;;18.86
70435;BMP280;57876;47.792;12.960;2022-10-26T00:58:41;97046.84;;;18.86
70435;BMP280;57876;47.792;12.960;2022-10-26T01:01:06;97048.88;;;18.85
70435;BMP280;57876;47.792;12.960;2022-10-26T01:03:30;97046.84;;;18.86
70435;BMP280;57876;47.792;12.960;2022-10-26T01:05:57;97041.34;;;18.86
70435;BMP280;57876;47.792;12.960;2022-10-26T01:08:22;97030.22;;;18.84
70435;BMP280;57876;47.792;12.960;2022-10-26T01:10:47;97032.25;;;18.83
70435;BMP280;57876;47.792;12.960;2022-10-26T01:13:14;97029.50;;;18.83
70435;BMP280;57876;47.792;12.960;2022-10-26T01:18:11;97038.44;;;18.84
70435;BMP280;57876;47.792;12.960;2022-10-26T01:23:25;97033.53;;;18.82
70435;BMP280;57876;47.792;12.960;2022-10-26T01:26:00;97032.81;;;18.82
70435;BMP280;57876;47.792;12.960;2022-10-26T01:31:03;97017.81;;;18.83
70435;BMP280;57876;47.792;12.960;2022-10-26T01:33:43;97020.41;;;18.81
70435;BMP280;57876;47.792;12.960;2022-10-26T01:38:56;97005.25;;;18.80
70435;BMP280;57876;47.792;12.960;2022-10-26T01:41:50;97000.50;;;18.80
70435;BMP280;57876;47.792;12.960;2022-10-26T01:44:20;96994.84;;;18.78
70435;BMP280;57876;47.792;12.960;2022-10-26T01:46:48;96999.03;;;18.79
70435;BMP280;57876;47.792;12.960;2022-10-26T01:49:16;96998.31;;;18.79
70435;BMP280;57876;47.792;12.960;2022-10-26T01:51:44;97008.00;;;18.80
70435;BMP280;57876;47.792;12.960;2022-10-26T01:54:11;97004.53;;;18.79
70435;BMP280;57876;47.792;12.960;2022-10-26T01:56:38;96999.63;;;18.78
70435;BMP280;57876;47.792;12.960;2022-10-26T01:59:21;96985.91;;;18.78
70435;BMP280;57876;47.792;12.960;2022-10-26T02:02:08;96978.41;;;18.78
70435;BMP280;57876;47.792;12.960;2022-10-26T02:12:13;96985.16;;;18.77
70435;BMP280;57876;47.792;12.960;2022-10-26T02:15:04;96974.22;;;18.77
70435;BMP280;57876;47.792;12.960;2022-10-26T02:20:33;96966.59;;;18.76
70435;BMP280;57876;47.792;12.960;2022-10-26T02:23:01;96963.84;;;18.76
70435;BMP280;57876;47.792;12.960;2022-10-26T02:25:29;96974.06;;;18.75
70435;BMP280;57876;47.792;12.960;2022-10-26T02:28:01;96971.34;;;18.75
70435;BMP280;57876;47.792;12.960;2022-10-26T02:30:28;96970.63;;;18.75
70435;BMP280;57876;47.792;12.960;2022-10-26T02:32:54;96974.06;;;18.75
70435;BMP280;57876;47.792;12.960;2022-10-26T02:35:24;96965.84;;;18.75
70435;BMP280;57876;47.792;12.960;2022-10-26T02:37:51;96956.91;;;18.75
70435;BMP280;57876;47.792;12.960;2022-10-26T02:40:21;96966.44;;;18.74
70435;BMP280;57876;47.792;12.960;2022-10-26T02:42:49;96984.88;;;18.73
70435;BMP280;57876;47.792;12.960;2022-10-26T02:45:20;96970.63;;;18.75
70435;BMP280;57876;47.792;12.960;2022-10-26T02:47:44;96968.44;;;18.73
70435;BMP280;57876;47.792;12.960;2022-10-26T02:50:09;97002.06;;;18.74
70435;BMP280;57876;47.792;12.960;2022-10-26T02:55:11;96995.84;;;18.73
70435;BMP280;57876;47.792;12.960;2022-10-26T02:57:40;96981.41;;;18.73
70435;BMP280;57876;47.792;12.960;2022-10-26T03:00:08;97006.06;;;18.73
70435;BMP280;57876;47.792;12.960;2022-10-26T03:02:33;97001.31;;;18.73
70435;BMP280;57876;47.792;12.960;2022-10-26T03:05:08;96998.59;;;18.73
70435;BMP280;57876;47.792;12.960;2022-10-26T03:07:32;97021.81;;;18.72
70435;BMP280;57876;47.792;12.960;2022-10-26T03:09:57;97017.03;;;18.73
70435;BMP280;57876;47.792;12.960;2022-10-26T03:12:22;96997.16;;;18.72
70435;BMP280;57876;47.792;12.960;2022-10-26T03:14:46;97005.38;;;18.72
70435;BMP280;57876;47.792;12.960;2022-10-26T03:17:11;97005.38;;;18.72
70435;BMP280;57876;47.792;12.960;2022-10-26T03:19:35;96976.53;;;18.71
70435;BMP280;57876;47.792;12.960;2022-10-26T03:22:00;96993.69;;;18.72
70435;BMP280;57876;47.792;12.960;2022-10-26T03:24:24;97003.94;;;18.71
70435;BMP280;57876;47.792;12.960;2022-10-26T03:26:48;96995.72;;;18.71
70435;BMP280;57876;47.792;12.960;2022-10-26T03:29:13;96985.28;;;18.70
70435;BMP280;57876;47.792;12.960;2022-10-26T03:31:37;96992.97;;;18.71
70435;BMP280;57876;47.792;12.960;2022-10-26T03:34:01;96991.50;;;18.70
70435;BMP280;57876;47.792;12.960;2022-10-26T03:36:26;96999.75;;;18.70
70435;BMP280;57876;47.792;12.960;2022-10-26T03:38:50;96997.00;;;18.70
70435;BMP280;57876;47.792;12.960;2022-10-26T03:41:15;97009.25;;;18.69
70435;BMP280;57876;47.792;12.960;2022-10-26T03:43:39;97015.44;;;18.70
70435;BMP280;57876;47.792;12.960;2022-10-26T03:46:03;97014.00;;;18.69
70435;BMP280;57876;47.792;12.960;2022-10-26T03:48:28;97022.94;;;18.69
70435;BMP280;57876;47.792;12.960;2022-10-26T03:50:56;97020.22;;;18.69
70435;BMP280;57876;47.792;12.960;2022-10-26T03:53:21;97016.72;;;18.69
70435;BMP280;57876;47.792;12.960;2022-10-26T03:55:45;97016.03;;;18.68
70435;BMP280;57876;47.792;12.960;2022-10-26T03:58:09;97007.09;;;18.68
70435;BMP280;57876;47.792;12.960;2022-10-26T04:00:34;97014.00;;;18.69
70435;BMP280;57876;47.792;12.960;2022-10-26T04:02:59;97026.97;;;18.68
70435;BMP280;57876;47.792;12.960;2022-10-26T04:05:24;97033.78;;;18.67
70435;BMP280;57876;47.792;12.960;2022-10-26T04:07:54;97031.03;;;18.67
70435;BMP280;57876;47.792;12.960;2022-10-26T04:10:18;97031.75;;;18.68
70435;BMP280;57876;47.792;12.960;2022-10-26T04:12:43;97033.03;;;18.67
70435;BMP280;57876;47.792;12.960;2022-10-26T04:15:07;97033.78;;;18.67
70435;BMP280;57876;47.792;12.960;2022-10-26T04:17:32;97043.28;;;18.67
70435;BMP280;57876;47.792;12.960;2022-10-26T04:19:56;97054.97;;;18.67
70435;BMP280;57876;47.792;12.960;2022-10-26T04:22:21;97046.03;;;18.67
70435;BMP280;57876;47.792;12.960;2022-10-26T04:24:45;97038.53;;;18.67
70435;BMP280;57876;47.792;12.960;2022-10-26T04:27:09;97039.81;;;18.66
70435;BMP280;57876;47.792;12.960;2022-10-26T04:29:34;97037.06;;;18.66
70435;BMP280;57876;47.792;12.960;2022-10-26T04:31:58;97037.81;;;18.67
70435;BMP280;57876;47.792;12.960;2022-10-26T04:34:23;97040.56;;;18.67
70435;BMP280;57876;47.792;12.960;2022-10-26T04:36:47;97052.22;;;18.67
70435;BMP280;57876;47.792;12.960;2022-10-26T04:39:11;97042.13;;;18.69
70435;BMP280;57876;47.792;12.960;2022-10-26T04:41:36;97035.66;;;18.74
70435;BMP280;57876;47.792;12.960;2022-10-26T04:44:00;97027.31;;;18.82
70435;BMP280;57876;47.792;12.960;2022-10-26T04:46:24;97021.59;;;18.87
70435;BMP280;57876;47.792;12.960;2022-10-26T04:48:49;97015.28;;;18.94
70435;BMP280;57876;47.792;12.960;2022-10-26T04:51:13;97029.44;;;19.00
70435;BMP280;57876;47.792;12.960;2022-10-26T04:53:37;97018.22;;;19.06
70435;BMP280;57876;47.792;12.960;2022-10-26T04:56:02;97008.81;;;19.09
70435;BMP280;57876;47.792;12.960;2022-10-26T04:58:27;97009.84;;;19.13
70435;BMP280;57876;47.792;12.960;2022-10-26T05:00:51;97015.63;;;19.17
70435;BMP280;57876;47.792;12.960;2022-10-26T05:03:16;97018.66;;;19.21
70435;BMP280;57876;47.792;12.960;2022-10-26T05:05:40;97025.06;;;19.24
70435;BMP280;57876;47.792;12.960;2022-10-26T05:08:05;97028.66;;;19.26
70435;BMP280;57876;47.792;12.960;2022-10-26T05:10:29;97018.56;;;19.29
70435;BMP280;57876;47.792;12.960;2022-10-26T05:12:56;97011.19;;;19.31
70435;BMP280;57876;47.792;12.960;2022-10-26T05:15:21;97007.88;;;19.33
70435;BMP280;57876;47.792;12.960;2022-10-26T05:17:46;97005.28;;;19.35
70435;BMP280;57876;47.792;12.960;2022-10-26T05:20:10;97006.75;;;19.36
70435;BMP280;57876;47.792;12.960;2022-10-26T05:22:36;97012.94;;;19.36
70435;BMP280;57876;47.792;12.960;2022-10-26T05:25:01;97009.63;;;19.38
70435;BMP280;57876;47.792;12.960;2022-10-26T05:27:25;97011.78;;;19.39
70435;BMP280;57876;47.792;12.960;2022-10-26T05:29:50;97016.72;;;19.40
70435;BMP280;57876;47.792;12.960;2022-10-26T05:32:14;97020.19;;;19.41
70435;BMP280;57876;47.792;12.960;2022-10-26T05:34:38;97020.19;;;19.41
70435;BMP280;57876;47.792;12.960;2022-10-26T05:37:03;97028.44;;;19.41
70435;BMP280;57876;47.792;12.960;2022-10-26T05:39:27;97038.09;;;19.42
70435;BMP280;57876;47.792;12.960;2022-10-26T05:41:51;97040.84;;;19.42
70435;BMP280;57876;47.792;12.960;2022-10-26T05:44:16;97049.09;;;19.42
70435;BMP280;57876;47.792;12.960;2022-10-26T05:46:40;97041.53;;;19.42
70435;BMP280;57876;47.792;12.960;2022-10-26T05:49:05;97033.31;;;19.42
70435;BMP280;57876;47.792;12.960;2022-10-26T05:51:32;97040.13;;;19.41
70435;BMP280;57876;47.792;12.960;2022-10-26T05:53:57;97053.84;;;19.41
70435;BMP280;57876;47.792;12.960;2022-10-26T05:56:38;97064.81;;;19.41
70435;BMP280;57876;47.792;12.960;2022-10-26T05:59:11;97066.84;;;19.41
70435;BMP280;57876;47.792;12.960;2022-10-26T06:04:28;97066.84;;;19.41
70435;BMP280;57876;47.792;12.960;2022-10-26T06:06:56;97072.13;;;19.39
70435;BMP280;57876;47.792;12.960;2022-10-26T06:09:22;97083.84;;;19.39
70435;BMP280;57876;47.792;12.960;2022-10-26T06:11:46;97083.13;;;19.39
70435;BMP280;57876;47.792;12.960;2022-10-26T06:14:11;97096.13;;;19.38
70435;BMP280;57876;47.792;12.960;2022-10-26T06:19:54;97111.84;;;19.38
70435;BMP280;57876;47.792;12.960;2022-10-26T06:30:23;97148.84;;;19.37
70435;BMP280;57876;47.792;12.960;2022-10-26T06:32:48;97154.31;;;19.37
70435;BMP280;57876;47.792;12.960;2022-10-26T06:35:32;97166.03;;;19.38
70435;BMP280;57876;47.792;12.960;2022-10-26T06:38:04;97166.03;;;19.38
70435;BMP280;57876;47.792;12.960;2022-10-26T06:40:31;97175.56;;;19.37
70435;BMP280;57876;47.792;12.960;2022-10-26T06:42:59;97181.06;;;19.37
70435;BMP280;57876;47.792;12.960;2022-10-26T06:45:23;97185.78;;;19.36
70435;BMP280;57876;47.792;12.960;2022-10-26T06:48:13;97195.31;;;19.35
70435;BMP280;57876;47.792;12.960;2022-10-26T06:50:52;97205.00;;;19.36
70435;BMP280;57876;47.792;12.960;2022-10-26T06:56:30;97226.25;;;19.36
70435;BMP280;57876;47.792;12.960;2022-10-26T06:58:55;97244.72;;;19.35
70435;BMP280;57876;47.792;12.960;2022-10-26T07:01:24;97251.66;;;19.36
70435;BMP280;57876;47.792;12.960;2022-10-26T07:03:48;97267.41;;;19.36
70435;BMP280;57876;47.792;12.960;2022-10-26T07:06:13;97268.13;;;19.36
70435;BMP280;57876;47.792;12.960;2022-10-26T07:08:37;97260.47;;;19.35
70435;BMP280;57876;47.792;12.960;2022-10-26T07:11:02;97272.16;;;19.35
70435;BMP280;57876;47.792;12.960;2022-10-26T07:13:27;97278.38;;;19.36
70435;BMP280;57876;47.792;12.960;2022-10-26T07:15:52;97294.09;;;19.35
70435;BMP280;57876;47.792;12.960;2022-10-26T07:18:16;97291.34;;;19.35
70435;BMP280;57876;47.792;12.960;2022-10-26T07:20:41;97288.59;;;19.35
70435;BMP280;57876;47.792;12.960;2022-10-26T07:23:06;97290.66;;;19.35
70435;BMP280;57876;47.792;12.960;2022-10-26T07:25:31;97294.09;;;19.35
70435;BMP280;57876;47.792;12.960;2022-10-26T07:27:59;97287.91;;;19.35
70435;BMP280;57876;47.792;12.960;2022-10-26T07:30:27;97306.53;;;19.36
70435;BMP280;57876;47.792;12.960;2022-10-26T07:33:12;97310.03;;;19.37
70435;BMP280;57876;47.792;12.960;2022-10-26T07:35:37;97314.75;;;19.36
70435;BMP280;57876;47.792;12.960;2022-10-26T07:38:02;97312.03;;;19.36
70435;BMP280;57876;47.792;12.960;2022-10-26T07:40:27;97317.50;;;19.36
70435;BMP280;57876;47.792;12.960;2022-10-26T07:42:55;97324.44;;;19.37
70435;BMP280;57876;47.792;12.960;2022-10-26T07:45:19;97323.00;;;19.36
70435;BMP280;57876;47.792;12.960;2022-10-26T07:47:44;97314.75;;;19.36
70435;BMP280;57876;47.792;12.960;2022-10-26T07:50:09;97310.03;;;19.37
70435;BMP280;57876;47.792;12.960;2022-10-26T07:52:35;97316.22;;;19.37
70435;BMP280;57876;47.792;12.960;2022-10-26T07:55:00;97314.06;;;19.36
70435;BMP280;57876;47.792;12.960;2022-10-26T07:57:24;97304.53;;;19.37
70435;BMP280;57876;47.792;12.960;2022-10-26T07:59:48;97310.72;;;19.37
70435;BMP280;57876;47.792;12.960;2022-10-26T08:02:13;97303.06;;;19.36
70435;BMP280;57876;47.792;12.960;2022-10-26T08:04:37;97298.31;;;19.36
70435;BMP280;57876;47.792;12.960;2022-10-26T08:07:02;97295.56;;;19.36
70435;BMP280;57876;47.792;12.960;2022-10-26T08:09:26;97290.22;;;19.38
70435;BMP280;57876;47.792;12.960;2022-10-26T08:11:50;97281.97;;;19.38
70435;BMP280;57876;47.792;12.960;2022-10-26T08:14:15;97264.81;;;19.38
70435;BMP280;57876;47.792;12.960;2022-10-26T08:16:39;97266.13;;;19.37
70435;BMP280;57876;47.792;12.960;2022-10-26T08:19:03;97269.56;;;19.37
70435;BMP280;57876;47.792;12.960;2022-10-26T08:21:28;97273.06;;;19.38
70435;BMP280;57876;47.792;12.960;2022-10-26T08:23:52;97271.00;;;19.38
70435;BMP280;57876;47.792;12.960;2022-10-26T08:26:17;97265.50;;;19.38
70435;BMP280;57876;47.792;12.960;2022-10-26T08:28:41;97277.22;;;19.38
70435;BMP280;57876;47.792;12.960;2022-10-26T08:31:06;97277.22;;;19.38
70435;BMP280;57876;47.792;12.960;2022-10-26T08:33:31;97275.94;;;19.39
70435;BMP280;57876;47.792;12.960;2022-10-26T08:35:59;97277.94;;;19.39
70435;BMP280;57876;47.792;12.960;2022-10-26T08:38:24;97267.72;;;19.39
70435;BMP280;57876;47.792;12.960;2022-10-26T08:40:49;97264.22;;;19.39
70435;BMP280;57876;47.792;12.960;2022-10-26T08:46:26;97258.03;;;19.38
70435;BMP280;57876;47.792;12.960;2022-10-26T08:49:01;97262.22;;;19.39
70435;BMP280;57876;47.792;12.960;2022-10-26T08:51:36;97258.03;;;19.38
70435;BMP280;57876;47.792;12.960;2022-10-26T08:54:09;97254.53;;;19.38
70435;BMP280;57876;47.792;12.960;2022-10-26T08:56:39;97260.03;;;19.38
70435;BMP280;57876;47.792;12.960;2022-10-26T09:01:39;97254.53;;;19.38
70435;BMP280;57876;47.792;12.960;2022-10-26T09:04:09;97255.28;;;19.38
70435;BMP280;57876;47.792;12.960;2022-10-26T09:09:27;97247.03;;;19.38
70435;BMP280;57876;47.792;12.960;2022-10-26T09:17:41;97233.31;;;19.38
70435;BMP280;57876;47.792;12.960;2022-10-26T09:25:47;97234.78;;;19.39
70435;BMP280;57876;47.792;12.960;2022-10-26T09:28:17;97234.78;;;19.39
70435;BMP280;57876;47.792;12.960;2022-10-26T09:30:45;97235.50;;;19.40
70435;BMP280;57876;47.792;12.960;2022-10-26T09:33:22;97240.97;;;19.40
70435;BMP280;57876;47.792;12.960;2022-10-26T09:35:51;97240.97;;;19.40
70435;BMP280;57876;47.792;12.960;2022-10-26T09:38:24;97240.25;;;19.39
70435;BMP280;57876;47.792;12.960;2022-10-26T09:46:18;97239.84;;;19.43
70435;BMP280;57876;47.792;12.960;2022-10-26T09:48:48;97237.69;;;19.41
70435;BMP280;57876;47.792;12.960;2022-10-26T09:51:15;97237.69;;;19.41
70435;BMP280;57876;47.792;12.960;2022-10-26T09:53:40;97243.16;;;19.41
70435;BMP280;57876;47.792;12.960;2022-10-26T09:56:10;97254.88;;;19.42
70435;BMP280;57876;47.792;12.960;2022-10-26T09:58:40;97244.47;;;19.40
70435;BMP280;57876;47.792;12.960;2022-10-26T10:01:05;97254.16;;;19.41
70435;BMP280;57876;47.792;12.960;2022-10-26T10:03:31;97256.19;;;19.41
70435;BMP280;57876;47.792;12.960;2022-10-26T10:06:16;97250.69;;;19.41
70435;BMP280;57876;47.792;12.960;2022-10-26T10:08:41;97249.94;;;19.40
70435;BMP280;57876;47.792;12.960;2022-10-26T10:11:11;97260.19;;;19.40
70435;BMP280;57876;47.792;12.960;2022-10-26T10:13:38;97250.50;;;19.39
70435;BMP280;57876;47.792;12.960;2022-10-26T10:16:07;97253.97;;;19.39
70435;BMP280;57876;47.792;12.960;2022-10-26T10:18:33;97251.94;;;19.40
70435;BMP280;57876;47.792;12.960;2022-10-26T10:20:59;97254.69;;;19.40
70435;BMP280;57876;47.792;12.960;2022-10-26T10:23:28;97245.19;;;19.41
70435;BMP280;57876;47.792;12.960;2022-10-26T10:26:02;97243.16;;;19.41
70435;BMP280;57876;47.792;12.960;2022-10-26T10:28:27;97243.91;;;19.42
70435;BMP280;57876;47.792;12.960;2022-10-26T10:31:00;97241.84;;;19.42
70435;BMP280;57876;47.792;12.960;2022-10-26T10:33:33;97233.63;;;19.42
70435;BMP280;57876;47.792;12.960;2022-10-26T10:35:58;97235.06;;;19.43
70435;BMP280;57876;47.792;12.960;2022-10-26T10:38:22;97234.38;;;19.43
70435;BMP280;57876;47.792;12.960;2022-10-26T10:41:01;97228.88;;;19.43
70435;BMP280;57876;47.792;12.960;2022-10-26T10:43:27;97246.78;;;19.44
70435;BMP280;57876;47.792;12.960;2022-10-26T10:45:54;97247.50;;;19.44
70435;BMP280;57876;47.792;12.960;2022-10-26T10:48:25;97252.44;;;19.46
70435;BMP280;57876;47.792;12.960;2022-10-26T10:51:02;97237.28;;;19.45
70435;BMP280;57876;47.792;12.960;2022-10-26T11:01:30;97238.72;;;19.46
70435;BMP280;57876;47.792;12.960;2022-10-26T11:07:15;97230.50;;;19.46
70435;BMP280;57876;47.792;12.960;2022-10-26T11:09:43;97230.63;;;19.48
70435;BMP280;57876;47.792;12.960;2022-10-26T11:12:15;97231.19;;;19.46
70435;BMP280;57876;47.792;12.960;2022-10-26T11:14:48;97234.66;;;19.47
70435;BMP280;57876;47.792;12.960;2022-10-26T11:17:35;97229.88;;;19.47
70435;BMP280;57876;47.792;12.960;2022-10-26T11:20:21;97231.91;;;19.47
70435;BMP280;57876;47.792;12.960;2022-10-26T11:25:24;97238.88;;;19.48
70435;BMP280;57876;47.792;12.960;2022-10-26T11:27:55;97236.88;;;19.48
70435;BMP280;57876;47.792;12.960;2022-10-26T11:30:22;97235.56;;;19.49
70435;BMP280;57876;47.792;12.960;2022-10-26T11:33:00;97238.31;;;19.49
70435;BMP280;57876;47.792;12.960;2022-10-26T11:35:58;97232.09;;;19.49
70435;BMP280;57876;47.792;12.960;2022-10-26T11:41:21;97252.03;;;19.49
70435;BMP280;57876;47.792;12.960;2022-10-26T11:44:28;97244.34;;;19.48
70435;BMP280;57876;47.792;12.960;2022-10-26T11:47:18;97247.84;;;19.48
70435;BMP280;57876;47.792;12.960;2022-10-26T11:52:43;97256.78;;;19.49
70435;BMP280;57876;47.792;12.960;2022-10-26T11:55:09;97262.28;;;19.49
70435;BMP280;57876;47.792;12.960;2022-10-26T11:57:36;97263.56;;;19.48
70435;BMP280;57876;47.792;12.960;2022-10-26T12:00:06;97267.75;;;19.49
70435;BMP280;57876;47.792;12.960;2022-10-26T12:02:36;97265.03;;;19.49
70435;BMP280;57876;47.792;12.960;2022-10-26T12:07:37;97269.22;;;19.50
70435;BMP280;57876;47.792;12.960;2022-10-26T12:10:06;97274.72;;;19.50
70435;BMP280;57876;47.792;12.960;2022-10-26T12:12:41;97282.22;;;19.49
70435;BMP280;57876;47.792;12.960;2022-10-26T12:15:21;97280.78;;;19.48
70435;BMP280;57876;47.792;12.960;2022-10-26T12:17:57;97289.00;;;19.48
70435;BMP280;57876;47.792;12.960;2022-10-26T12:23:17;97299.25;;;19.48
70435;BMP280;57876;47.792;12.960;2022-10-26T12:25:42;97295.75;;;19.47
70435;BMP280;57876;47.792;12.960;2022-10-26T12:33:55;97295.03;;;19.47
70435;BMP280;57876;47.792;12.960;2022-10-26T12:39:32;97308.03;;;19.46
70435;BMP280;57876;47.792;12.960;2022-10-26T12:47:07;97305.28;;;19.46
70435;BMP280;57876;47.792;12.960;2022-10-26T12:49:57;97315.56;;;19.46
70435;BMP280;57876;47.792;12.960;2022-10-26T12:52:27;97324.34;;;19.44
70435;BMP280;57876;47.792;12.960;2022-10-26T12:57:57;97359.31;;;19.44
70435;BMP280;57876;47.792;12.960;2022-10-26T13:00:26;97377.78;;;19.43
70435;BMP280;57876;47.792;12.960;2022-10-26T13:08:19;97354.38;;;19.42
70435;BMP280;57876;47.792;12.960;2022-10-26T13:13:25;97361.19;;;19.41
70435;BMP280;57876;47.792;12.960;2022-10-26T13:15:54;97356.44;;;19.42
70435;BMP280;57876;47.792;12.960;2022-10-26T13:18:20;97359.84;;;19.42
70435;BMP280;57876;47.792;12.960;2022-10-26T13:23:25;97349.63;;;19.43
70435;BMP280;57876;47.792;12.960;2022-10-26T13:34:15;97365.34;;;19.42
70435;BMP280;57876;47.792;12.960;2022-10-26T13:39:17;97379.81;;;19.43
70435;BMP280;57876;47.792;12.960;2022-10-26T13:41:45;97373.59;;;19.42
70435;BMP280;57876;47.792;12.960;2022-10-26T13:44:24;97383.88;;;19.42
70435;BMP280;57876;47.792;12.960;2022-10-26T13:46:54;97388.03;;;19.43
70435;BMP280;57876;47.792;12.960;2022-10-26T13:49:44;97377.78;;;19.43
70435;BMP280;57876;47.792;12.960;2022-10-26T13:52:19;97388.03;;;19.43
70435;BMP280;57876;47.792;12.960;2022-10-26T13:54:55;97388.03;;;19.43
70435;BMP280;57876;47.792;12.960;2022-10-26T13:57:32;97399.03;;;19.43
70435;BMP280;57876;47.792;12.960;2022-10-26T13:59:59;97395.53;;;19.42
70435;BMP280;57876;47.792;12.960;2022-10-26T14:02:30;97394.25;;;19.43
70435;BMP280;57876;47.792;12.960;2022-10-26T14:05:00;97392.25;;;19.44
70435;BMP280;57876;47.792;12.960;2022-10-26T14:08:01;97401.75;;;19.43
70435;BMP280;57876;47.792;12.960;2022-10-26T14:10:29;97403.78;;;19.42
70435;BMP280;57876;47.792;12.960;2022-10-26T14:12:56;97399.03;;;19.43
70435;BMP280;57876;47.792;12.960;2022-10-26T14:15:27;97401.75;;;19.43
70435;BMP280;57876;47.792;12.960;2022-10-26T14:17:54;97408.56;;;19.42
70435;BMP280;57876;47.792;12.960;2022-10-26T14:20:21;97418.22;;;19.43
70435;BMP280;57876;47.792;12.960;2022-10-26T14:22:46;97411.31;;;19.42
70435;BMP280;57876;47.792;12.960;2022-10-26T14:25:21;97414.06;;;19.42
70435;BMP280;57876;47.792;12.960;2022-10-26T14:27:47;97424.28;;;19.41
70435;BMP280;57876;47.792;12.960;2022-10-26T14:30:31;97410.56;;;19.41
70435;BMP280;57876;47.792;12.960;2022-10-26T14:32:57;97405.81;;;19.42
70435;BMP280;57876;47.792;12.960;2022-10-26T14:35:24;97405.09;;;19.41
70435;BMP280;57876;47.792;12.960;2022-10-26T14:37:53;97407.81;;;19.41
70435;BMP280;57876;47.792;12.960;2022-10-26T14:40:21;97413.31;;;19.41
70435;BMP280;57876;47.792;12.960;2022-10-26T14:42:49;97419.56;;;19.42
70435;BMP280;57876;47.792;12.960;2022-10-26T14:47:48;97432.66;;;19.43
70435;BMP280;57876;47.792;12.960;2022-10-26T14:50:20;97431.97;;;19.43
70435;BMP280;57876;47.792;12.960;2022-10-26T14:52:52;97429.22;;;19.43
70435;BMP280;57876;47.792;12.960;2022-10-26T14:55:17;97427.19;;;19.43
70435;BMP280;57876;47.792;12.960;2022-10-26T14:57:43;97431.38;;;19.44
70435;BMP280;57876;47.792;12.960;2022-10-26T15:00:20;97436.16;;;19.44
70435;BMP280;57876;47.792;12.960;2022-10-26T15:02:46;97433.41;;;19.44
70435;BMP280;57876;47.792;12.960;2022-10-26T15:05:29;97433.41;;;19.44
70435;BMP280;57876;47.792;12.960;2022-10-26T15:07:55;97432.66;;;19.43
70435;BMP280;57876;47.792;12.960;2022-10-26T15:13:13;97432.66;;;19.43
70435;BMP280;57876;47.792;12.960;2022-10-26T15:15:41;97438.91;;;19.44
70435;BMP280;57876;47.792;12.960;2022-10-26T15:18:17;97438.16;;;19.43
70435;BMP280;57876;47.792;12.960;2022-10-26T15:20:46;97436.16;;;19.44
70435;BMP280;57876;47.792;12.960;2022-10-26T15:23:12;97445.69;;;19.43
70435;BMP280;57876;47.792;12.960;2022-10-26T15:25:38;97446.41;;;19.43
70435;BMP280;57876;47.792;12.960;2022-10-26T15:33:33;97452.47;;;19.42
70435;BMP280;57876;47.792;12.960;2022-10-26T15:38:31;97453.91;;;19.43
70435;BMP280;57876;47.792;12.960;2022-10-26T15:40:55;97452.47;;;19.42
70435;BMP280;57876;47.792;12.960;2022-10-26T15:43:20;97467.63;;;19.43
70435;BMP280;57876;47.792;12.960;2022-10-26T15:45:46;97471.09;;;19.43
70435;BMP280;57876;47.792;12.960;2022-10-26T15:48:23;97464.16;;;19.42
70435;BMP280;57876;47.792;12.960;2022-10-26T15:50:50;97470.38;;;19.43
70435;BMP280;57876;47.792;12.960;2022-10-26T15:53:20;97475.13;;;19.42
70435;BMP280;57876;47.792;12.960;2022-10-26T15:55:46;97472.97;;;19.41
70435;BMP280;57876;47.792;12.960;2022-10-26T15:58:11;97468.75;;;19.40
70435;BMP280;57876;47.792;12.960;2022-10-26T16:00:35;97469.50;;;19.40
70435;BMP280;57876;47.792;12.960;2022-10-26T16:03:01;97474.97;;;19.40
70435;BMP280;57876;47.792;12.960;2022-10-26T16:05:26;97468.75;;;19.40
70435;BMP280;57876;47.792;12.960;2022-10-26T16:07:50;97476.97;;;19.40
70435;BMP280;57876;47.792;12.960;2022-10-26T16:10:24;97487.41;;;19.41
70435;BMP280;57876;47.792;12.960;2022-10-26T16:12:48;97481.94;;;19.41
70435;BMP280;57876;47.792;12.960;2022-10-26T16:15:21;97488.84;;;19.42
70435;BMP280;57876;47.792;12.960;2022-10-26T16:17:47;97497.06;;;19.42
70435;BMP280;57876;47.792;12.960;2022-10-26T16:20:18;97500.56;;;19.43
70435;BMP280;57876;47.792;12.960;2022-10-26T16:22:42;97496.53;;;19.44
70435;BMP280;57876;47.792;12.960;2022-10-26T16:25:11;97510.25;;;19.44